sensor_id;sensor_type;location;lat;lon;timestamp;temperature;humidity
46492;DHT22;32206;51.446;6.792;2023-09-19T00:02:27;17.30;99.90
46492;DHT22;32206;51.446;6.792;2023-09-19T00:04:53;17.30;99.90
46492;DHT22;32206;51.446;6.792;2023-09-19T00:07:19;17.30;99.90
46492;DHT22;32206;51.446;6.792;2023-09-19T00:09:44;17.30;99.90
46492;DHT22;32206;51.446;6.792;2023-09-19T00:12:10;17.20;99.90
46492;DHT22;32206;51.446;6.792;2023-09-19T00:14:35;17.20;99.90
46492;DHT22;32206;51.446;6.792;2023-09-19T00:17:02;17.20;99.90
46492;DHT22;32206;51.446;6.792;2023-09-19T00:19:34;17.10;99.90
46492;DHT22;32206;51.446;6.792;2023-09-19T00:21:59;17.10;99.90
46492;DHT22;32206;51.446;6.792;2023-09-19T00:24:26;17.10;99.90
46492;DHT22;32206;51.446;6.792;2023-09-19T00:26:53;17.10;99.90
46492;DHT22;32206;51.446;6.792;2023-09-19T00:29:21;17.10;99.90
46492;DHT22;32206;51.446;6.792;2023-09-19T00:31:48;17.10;99.90
46492;DHT22;32206;51.446;6.792;2023-09-19T00:34:15;17.00;1.00
46492;DHT22;32206;51.446;6.792;2023-09-19T00:36:42;17.00;1.00
46492;DHT22;32206;51.446;6.792;2023-09-19T00:39:08;17.00;1.00
46492;DHT22;32206;51.446;6.792;2023-09-19T00:41:35;17.00;1.00
46492;DHT22;32206;51.446;6.792;2023-09-19T00:44:02;17.00;1.00
46492;DHT22;32206;51.446;6.792;2023-09-19T00:46:30;17.00;1.00
46492;DHT22;32206;51.446;6.792;2023-09-19T00:48:56;16.90;1.00
46492;DHT22;32206;51.446;6.792;2023-09-19T00:51:22;16.80;1.00
46492;DHT22;32206;51.446;6.792;2023-09-19T00:53:51;16.80;1.00
46492;DHT22;32206;51.446;6.792;2023-09-19T00:56:18;16.70;1.00
46492;DHT22;32206;51.446;6.792;2023-09-19T00:58:47;16.70;1.00
46492;DHT22;32206;51.446;6.792;2023-09-19T01:01:14;16.70;1.00
46492;DHT22;32206;51.446;6.792;2023-09-19T01:03:41;16.70;1.00
46492;DHT22;32206;51.446;6.792;2023-09-19T01:06:07;16.60;1.00
46492;DHT22;32206;51.446;6.792;2023-09-19T01:15:26;16.60;1.00
46492;DHT22;32206;51.446;6.792;2023-09-19T01:18:03;16.50;1.00
46492;DHT22;32206;51.446;6.792;2023-09-19T01:30:18;16.50;1.00
46492;DHT22;32206;51.446;6.792;2023-09-19T01:32:49;16.50;1.00
46492;DHT22;32206;51.446;6.792;2023-09-19T01:35:18;16.50;1.00
46492;DHT22;32206;51.446;6.792;2023-09-19T01:37:44;16.40;1.00
46492;DHT22;32206;51.446;6.792;2023-09-19T01:40:12;16.40;1.00
46492;DHT22;32206;51.446;6.792;2023-09-19T01:43:09;16.50;1.00
46492;DHT22;32206;51.446;6.792;2023-09-19T01:45:48;16.40;1.00
46492;DHT22;32206;51.446;6.792;2023-09-19T01:51:09;16.50;1.00
46492;DHT22;32206;51.446;6.792;2023-09-19T01:53:50;16.50;99.90
46492;DHT22;32206;51.446;6.792;2023-09-19T01:56:25;16.50;99.90
46492;DHT22;32206;51.446;6.792;2023-09-19T01:58:56;16.50;99.90
46492;DHT22;32206;51.446;6.792;2023-09-19T02:01:26;16.30;99.90
46492;DHT22;32206;51.446;6.792;2023-09-19T02:03:53;16.30;99.90
46492;DHT22;32206;51.446;6.792;2023-09-19T02:06:19;16.30;99.90
46492;DHT22;32206;51.446;6.792;2023-09-19T02:08:46;16.30;99.90
46492;DHT22;32206;51.446;6.792;2023-09-19T02:11:12;16.20;99.90
46492;DHT22;32206;51.446;6.792;2023-09-19T02:13:39;16.20;99.90
46492;DHT22;32206;51.446;6.792;2023-09-19T02:16:06;16.20;99.90
46492;DHT22;32206;51.446;6.792;2023-09-19T02:18:57;16.30;99.90
46492;DHT22;32206;51.446;6.792;2023-09-19T02:21:22;16.30;99.90
46492;DHT22;32206;51.446;6.792;2023-09-19T02:23:49;16.30;99.90
46492;DHT22;32206;51.446;6.792;2023-09-19T02:26:14;16.30;99.90
46492;DHT22;32206;51.446;6.792;2023-09-19T02:28:41;16.30;99.90
46492;DHT22;32206;51.446;6.792;2023-09-19T02:31:07;16.20;99.90
46492;DHT22;32206;51.446;6.792;2023-09-19T02:33:33;16.20;99.90
46492;DHT22;32206;51.446;6.792;2023-09-19T02:35:59;16.10;1.00
46492;DHT22;32206;51.446;6.792;2023-09-19T02:38:25;16.20;1.00
46492;DHT22;32206;51.446;6.792;2023-09-19T02:44:13;16.20;99.90
46492;DHT22;32206;51.446;6.792;2023-09-19T02:46:39;16.10;99.90
46492;DHT22;32206;51.446;6.792;2023-09-19T02:49:05;16.10;99.90
46492;DHT22;32206;51.446;6.792;2023-09-19T02:51:32;16.10;1.00
46492;DHT22;32206;51.446;6.792;2023-09-19T02:53:59;16.10;99.90
46492;DHT22;32206;51.446;6.792;2023-09-19T02:56:25;16.10;99.90
46492;DHT22;32206;51.446;6.792;2023-09-19T02:58:50;16.00;99.90
46492;DHT22;32206;51.446;6.792;2023-09-19T03:01:16;16.00;99.90
46492;DHT22;32206;51.446;6.792;2023-09-19T03:03:43;16.00;99.90
46492;DHT22;32206;51.446;6.792;2023-09-19T03:06:10;16.00;99.90
46492;DHT22;32206;51.446;6.792;2023-09-19T03:08:38;16.00;99.90
46492;DHT22;32206;51.446;6.792;2023-09-19T03:11:06;16.00;11.30
46492;DHT22;32206;51.446;6.792;2023-09-19T03:13:34;16.00;1.00
46492;DHT22;32206;51.446;6.792;2023-09-19T03:16:01;16.00;39.40
46492;DHT22;32206;51.446;6.792;2023-09-19T03:18:30;16.00;1.00
46492;DHT22;32206;51.446;6.792;2023-09-19T03:27:41;16.00;99.90
46492;DHT22;32206;51.446;6.792;2023-09-19T03:33:29;15.90;1.00
46492;DHT22;32206;51.446;6.792;2023-09-19T03:35:59;15.90;99.90
46492;DHT22;32206;51.446;6.792;2023-09-19T03:38:26;15.90;99.90
46492;DHT22;32206;51.446;6.792;2023-09-19T03:40:52;15.90;99.90
46492;DHT22;32206;51.446;6.792;2023-09-19T03:43:18;15.90;90.10
46492;DHT22;32206;51.446;6.792;2023-09-19T03:45:44;15.90;1.00
46492;DHT22;32206;51.446;6.792;2023-09-19T03:48:12;15.90;47.40
46492;DHT22;32206;51.446;6.792;2023-09-19T03:50:38;15.80;99.90
46492;DHT22;32206;51.446;6.792;2023-09-19T03:53:04;15.80;99.90
46492;DHT22;32206;51.446;6.792;2023-09-19T03:55:30;15.80;99.90
46492;DHT22;32206;51.446;6.792;2023-09-19T03:57:56;15.80;99.90
46492;DHT22;32206;51.446;6.792;2023-09-19T04:00:22;15.80;99.90
46492;DHT22;32206;51.446;6.792;2023-09-19T04:02:51;15.80;99.90
46492;DHT22;32206;51.446;6.792;2023-09-19T04:05:16;15.80;99.90
46492;DHT22;32206;51.446;6.792;2023-09-19T04:07:42;15.80;99.90
46492;DHT22;32206;51.446;6.792;2023-09-19T04:10:08;15.80;99.90
46492;DHT22;32206;51.446;6.792;2023-09-19T04:12:35;15.80;99.90
46492;DHT22;32206;51.446;6.792;2023-09-19T04:15:01;15.80;99.90
46492;DHT22;32206;51.446;6.792;2023-09-19T04:17:27;15.80;99.90
46492;DHT22;32206;51.446;6.792;2023-09-19T04:19:53;15.80;99.90
46492;DHT22;32206;51.446;6.792;2023-09-19T04:22:19;15.70;99.90
46492;DHT22;32206;51.446;6.792;2023-09-19T04:24:44;15.70;1.00
46492;DHT22;32206;51.446;6.792;2023-09-19T04:27:10;15.70;1.00
46492;DHT22;32206;51.446;6.792;2023-09-19T04:29:37;15.70;1.00
46492;DHT22;32206;51.446;6.792;2023-09-19T04:32:05;15.70;1.00
46492;DHT22;32206;51.446;6.792;2023-09-19T04:34:31;15.70;1.00
46492;DHT22;32206;51.446;6.792;2023-09-19T04:43:41;15.70;1.00
46492;DHT22;32206;51.446;6.792;2023-09-19T04:46:07;15.70;1.00
46492;DHT22;32206;51.446;6.792;2023-09-19T04:48:33;15.60;1.00
46492;DHT22;32206;51.446;6.792;2023-09-19T04:51:00;15.60;1.00
46492;DHT22;32206;51.446;6.792;2023-09-19T04:53:26;15.60;1.00
46492;DHT22;32206;51.446;6.792;2023-09-19T04:55:53;15.60;1.00
46492;DHT22;32206;51.446;6.792;2023-09-19T04:58:21;15.60;1.00
46492;DHT22;32206;51.446;6.792;2023-09-19T05:00:47;15.60;1.00
46492;DHT22;32206;51.446;6.792;2023-09-19T05:03:12;15.60;1.00
46492;DHT22;32206;51.446;6.792;2023-09-19T05:05:38;15.60;1.00
46492;DHT22;32206;51.446;6.792;2023-09-19T05:08:06;15.60;1.00
46492;DHT22;32206;51.446;6.792;2023-09-19T05:10:34;15.60;1.00
46492;DHT22;32206;51.446;6.792;2023-09-19T05:13:03;15.60;1.00
46492;DHT22;32206;51.446;6.792;2023-09-19T05:15:30;15.60;1.00
46492;DHT22;32206;51.446;6.792;2023-09-19T05:17:56;15.60;1.00
46492;DHT22;32206;51.446;6.792;2023-09-19T05:20:23;15.60;1.00
46492;DHT22;32206;51.446;6.792;2023-09-19T05:23:04;15.50;1.00
46492;DHT22;32206;51.446;6.792;2023-09-19T05:25:36;15.60;1.00
46492;DHT22;32206;51.446;6.792;2023-09-19T05:28:10;15.60;1.00
46492;DHT22;32206;51.446;6.792;2023-09-19T05:37:04;15.70;1.00
46492;DHT22;32206;51.446;6.792;2023-09-19T05:39:32;15.60;1.00
46492;DHT22;32206;51.446;6.792;2023-09-19T05:41:58;15.60;1.00
46492;DHT22;32206;51.446;6.792;2023-09-19T05:44:25;15.70;99.90
46492;DHT22;32206;51.446;6.792;2023-09-19T05:46:51;15.60;99.90
46492;DHT22;32206;51.446;6.792;2023-09-19T05:49:17;15.60;99.90
46492;DHT22;32206;51.446;6.792;2023-09-19T05:51:43;15.70;1.00
46492;DHT22;32206;51.446;6.792;2023-09-19T05:54:08;15.70;1.00
46492;DHT22;32206;51.446;6.792;2023-09-19T05:56:34;15.80;99.90
46492;DHT22;32206;51.446;6.792;2023-09-19T05:59:00;15.70;99.90
46492;DHT22;32206;51.446;6.792;2023-09-19T06:01:29;15.70;99.90
46492;DHT22;32206;51.446;6.792;2023-09-19T06:03:56;15.80;99.90
46492;DHT22;32206;51.446;6.792;2023-09-19T06:06:22;15.80;99.90
46492;DHT22;32206;51.446;6.792;2023-09-19T06:15:34;15.80;99.90
46492;DHT22;32206;51.446;6.792;2023-09-19T06:18:01;15.90;99.90
46492;DHT22;32206;51.446;6.792;2023-09-19T06:20:27;15.90;88.20
46492;DHT22;32206;51.446;6.792;2023-09-19T06:22:53;15.90;99.90
46492;DHT22;32206;51.446;6.792;2023-09-19T06:25:20;15.90;99.90
46492;DHT22;32206;51.446;6.792;2023-09-19T06:27:46;15.90;99.90
46492;DHT22;32206;51.446;6.792;2023-09-19T06:30:12;15.90;99.90
46492;DHT22;32206;51.446;6.792;2023-09-19T06:32:42;15.90;99.90
46492;DHT22;32206;51.446;6.792;2023-09-19T06:35:15;15.90;99.90
46492;DHT22;32206;51.446;6.792;2023-09-19T06:37:42;15.90;99.90
46492;DHT22;32206;51.446;6.792;2023-09-19T06:40:11;15.90;99.90
46492;DHT22;32206;51.446;6.792;2023-09-19T06:42:43;15.90;99.90
46492;DHT22;32206;51.446;6.792;2023-09-19T06:45:12;15.90;99.90
46492;DHT22;32206;51.446;6.792;2023-09-19T06:47:45;16.00;99.90
46492;DHT22;32206;51.446;6.792;2023-09-19T06:50:14;16.00;99.90
46492;DHT22;32206;51.446;6.792;2023-09-19T06:52:41;16.00;99.90
46492;DHT22;32206;51.446;6.792;2023-09-19T06:55:29;16.20;99.90
46492;DHT22;32206;51.446;6.792;2023-09-19T06:57:57;16.10;99.90
46492;DHT22;32206;51.446;6.792;2023-09-19T07:00:23;16.10;99.90
46492;DHT22;32206;51.446;6.792;2023-09-19T07:03:18;16.10;99.90
46492;DHT22;32206;51.446;6.792;2023-09-19T07:05:48;16.10;99.90
46492;DHT22;32206;51.446;6.792;2023-09-19T07:08:14;16.20;99.90
46492;DHT22;32206;51.446;6.792;2023-09-19T07:10:41;16.20;99.90
46492;DHT22;32206;51.446;6.792;2023-09-19T07:13:08;16.20;99.90
46492;DHT22;32206;51.446;6.792;2023-09-19T07:15:38;16.20;99.90
46492;DHT22;32206;51.446;6.792;2023-09-19T07:18:07;16.10;1.00
46492;DHT22;32206;51.446;6.792;2023-09-19T07:20:36;16.20;1.00
46492;DHT22;32206;51.446;6.792;2023-09-19T07:23:02;16.30;1.00
46492;DHT22;32206;51.446;6.792;2023-09-19T07:25:28;16.20;1.00
46492;DHT22;32206;51.446;6.792;2023-09-19T07:27:58;16.20;99.90
46492;DHT22;32206;51.446;6.792;2023-09-19T07:33:51;16.20;1.00
46492;DHT22;32206;51.446;6.792;2023-09-19T07:36:17;16.20;1.00
46492;DHT22;32206;51.446;6.792;2023-09-19T07:38:42;16.30;1.00
46492;DHT22;32206;51.446;6.792;2023-09-19T07:41:08;16.40;99.90
46492;DHT22;32206;51.446;6.792;2023-09-19T07:43:35;16.40;99.90
46492;DHT22;32206;51.446;6.792;2023-09-19T07:46:05;16.30;99.90
46492;DHT22;32206;51.446;6.792;2023-09-19T07:48:35;16.40;99.90
46492;DHT22;32206;51.446;6.792;2023-09-19T07:51:05;16.40;1.00
46492;DHT22;32206;51.446;6.792;2023-09-19T07:53:32;16.50;99.90
46492;DHT22;32206;51.446;6.792;2023-09-19T07:56:07;16.40;99.90
46492;DHT22;32206;51.446;6.792;2023-09-19T07:58:33;16.40;99.90
46492;DHT22;32206;51.446;6.792;2023-09-19T08:04:49;16.50;99.90
46492;DHT22;32206;51.446;6.792;2023-09-19T08:10:42;16.60;99.90
46492;DHT22;32206;51.446;6.792;2023-09-19T08:13:10;16.60;99.90
46492;DHT22;32206;51.446;6.792;2023-09-19T08:15:43;16.60;99.90
46492;DHT22;32206;51.446;6.792;2023-09-19T08:18:11;16.70;99.90
46492;DHT22;32206;51.446;6.792;2023-09-19T08:23:59;16.80;99.90
46492;DHT22;32206;51.446;6.792;2023-09-19T08:26:25;16.80;99.90
46492;DHT22;32206;51.446;6.792;2023-09-19T08:28:51;16.80;99.90
46492;DHT22;32206;51.446;6.792;2023-09-19T08:31:17;16.90;97.10
46492;DHT22;32206;51.446;6.792;2023-09-19T08:33:43;16.90;82.90
46492;DHT22;32206;51.446;6.792;2023-09-19T08:36:15;17.00;1.00
46492;DHT22;32206;51.446;6.792;2023-09-19T08:38:41;17.00;1.00
46492;DHT22;32206;51.446;6.792;2023-09-19T08:44:29;17.10;1.00
46492;DHT22;32206;51.446;6.792;2023-09-19T08:47:11;17.30;99.90
46492;DHT22;32206;51.446;6.792;2023-09-19T08:50:07;17.30;1.00
46492;DHT22;32206;51.446;6.792;2023-09-19T08:52:43;17.40;99.90
46492;DHT22;32206;51.446;6.792;2023-09-19T08:55:13;17.40;99.90
46492;DHT22;32206;51.446;6.792;2023-09-19T08:57:45;17.40;99.90
46492;DHT22;32206;51.446;6.792;2023-09-19T09:00:15;17.40;1.00
46492;DHT22;32206;51.446;6.792;2023-09-19T09:02:42;17.50;1.00
46492;DHT22;32206;51.446;6.792;2023-09-19T09:05:09;17.50;1.00
46492;DHT22;32206;51.446;6.792;2023-09-19T09:07:40;17.50;99.90
46492;DHT22;32206;51.446;6.792;2023-09-19T09:10:07;17.50;99.90
46492;DHT22;32206;51.446;6.792;2023-09-19T09:12:34;17.60;99.90
46492;DHT22;32206;51.446;6.792;2023-09-19T09:15:02;17.80;99.90
46492;DHT22;32206;51.446;6.792;2023-09-19T09:17:29;17.90;1.00
46492;DHT22;32206;51.446;6.792;2023-09-19T09:19:55;18.00;1.00
46492;DHT22;32206;51.446;6.792;2023-09-19T09:22:22;18.10;99.90
46492;DHT22;32206;51.446;6.792;2023-09-19T09:24:58;18.00;1.00
46492;DHT22;32206;51.446;6.792;2023-09-19T09:30:56;18.10;99.90
46492;DHT22;32206;51.446;6.792;2023-09-19T09:33:24;18.30;1.00
46492;DHT22;32206;51.446;6.792;2023-09-19T09:36:03;18.30;99.90
46492;DHT22;32206;51.446;6.792;2023-09-19T09:38:43;18.30;99.90
46492;DHT22;32206;51.446;6.792;2023-09-19T09:41:09;18.40;99.90
46492;DHT22;32206;51.446;6.792;2023-09-19T09:43:39;18.40;99.90
46492;DHT22;32206;51.446;6.792;2023-09-19T09:46:18;18.60;99.90
46492;DHT22;32206;51.446;6.792;2023-09-19T09:49:01;18.60;1.00
46492;DHT22;32206;51.446;6.792;2023-09-19T09:54:25;18.60;99.90
46492;DHT22;32206;51.446;6.792;2023-09-19T09:57:00;18.50;99.90
46492;DHT22;32206;51.446;6.792;2023-09-19T09:59:54;18.60;99.90
46492;DHT22;32206;51.446;6.792;2023-09-19T10:02:30;18.60;99.90
46492;DHT22;32206;51.446;6.792;2023-09-19T10:05:16;18.70;99.90
46492;DHT22;32206;51.446;6.792;2023-09-19T10:07:45;18.90;1.00
46492;DHT22;32206;51.446;6.792;2023-09-19T10:10:32;18.90;1.00
46492;DHT22;32206;51.446;6.792;2023-09-19T10:13:05;18.80;1.00
46492;DHT22;32206;51.446;6.792;2023-09-19T10:15:33;18.90;1.00
46492;DHT22;32206;51.446;6.792;2023-09-19T10:18:01;19.10;99.90
46492;DHT22;32206;51.446;6.792;2023-09-19T10:20:30;19.20;99.90
46492;DHT22;32206;51.446;6.792;2023-09-19T10:23:06;19.30;99.90
46492;DHT22;32206;51.446;6.792;2023-09-19T10:25:37;19.30;99.90
46492;DHT22;32206;51.446;6.792;2023-09-19T10:28:06;19.50;99.90
46492;DHT22;32206;51.446;6.792;2023-09-19T10:30:37;19.70;99.90
46492;DHT22;32206;51.446;6.792;2023-09-19T10:33:04;19.80;1.00
46492;DHT22;32206;51.446;6.792;2023-09-19T10:35:32;19.70;4.30
46492;DHT22;32206;51.446;6.792;2023-09-19T10:38:00;19.70;8.60
46492;DHT22;32206;51.446;6.792;2023-09-19T10:40:27;19.90;1.00
46492;DHT22;32206;51.446;6.792;2023-09-19T10:43:03;19.90;1.00
46492;DHT22;32206;51.446;6.792;2023-09-19T10:45:34;19.90;1.00
46492;DHT22;32206;51.446;6.792;2023-09-19T10:48:01;19.90;1.00
46492;DHT22;32206;51.446;6.792;2023-09-19T10:50:46;19.80;1.00
46492;DHT22;32206;51.446;6.792;2023-09-19T10:53:14;19.80;1.00
46492;DHT22;32206;51.446;6.792;2023-09-19T10:55:52;20.00;1.00
46492;DHT22;32206;51.446;6.792;2023-09-19T10:58:27;20.00;1.00
46492;DHT22;32206;51.446;6.792;2023-09-19T11:00:56;20.00;1.00
46492;DHT22;32206;51.446;6.792;2023-09-19T11:03:23;20.00;1.00
46492;DHT22;32206;51.446;6.792;2023-09-19T11:06:06;20.10;1.00
46492;DHT22;32206;51.446;6.792;2023-09-19T11:09:01;20.10;1.00
46492;DHT22;32206;51.446;6.792;2023-09-19T11:30:33;20.10;1.00
46492;DHT22;32206;51.446;6.792;2023-09-19T11:33:25;20.30;1.00
46492;DHT22;32206;51.446;6.792;2023-09-19T11:46:33;20.60;1.00
46492;DHT22;32206;51.446;6.792;2023-09-19T11:49:06;20.70;1.00
46492;DHT22;32206;51.446;6.792;2023-09-19T11:51:42;20.80;1.00
46492;DHT22;32206;51.446;6.792;2023-09-19T11:54:12;20.80;1.00
46492;DHT22;32206;51.446;6.792;2023-09-19T11:56:45;20.90;1.00
46492;DHT22;32206;51.446;6.792;2023-09-19T11:59:23;21.20;1.00
46492;DHT22;32206;51.446;6.792;2023-09-19T12:02:11;21.20;1.00
46492;DHT22;32206;51.446;6.792;2023-09-19T12:04:42;21.10;1.00
46492;DHT22;32206;51.446;6.792;2023-09-19T12:07:41;21.30;99.90
46492;DHT22;32206;51.446;6.792;2023-09-19T12:10:07;21.50;99.90
46492;DHT22;32206;51.446;6.792;2023-09-19T12:12:37;21.40;99.90
46492;DHT22;32206;51.446;6.792;2023-09-19T12:15:03;21.50;99.90
46492;DHT22;32206;51.446;6.792;2023-09-19T12:17:39;21.50;99.90
46492;DHT22;32206;51.446;6.792;2023-09-19T12:20:08;21.50;99.90
46492;DHT22;32206;51.446;6.792;2023-09-19T12:22:44;21.70;99.90
46492;DHT22;32206;51.446;6.792;2023-09-19T12:25:12;21.80;99.90
46492;DHT22;32206;51.446;6.792;2023-09-19T12:30:10;21.60;99.90
46492;DHT22;32206;51.446;6.792;2023-09-19T12:32:39;21.70;99.90
46492;DHT22;32206;51.446;6.792;2023-09-19T12:35:06;21.80;99.90
46492;DHT22;32206;51.446;6.792;2023-09-19T12:37:47;21.90;99.90
46492;DHT22;32206;51.446;6.792;2023-09-19T12:40:21;21.80;99.90
46492;DHT22;32206;51.446;6.792;2023-09-19T12:43:01;21.70;99.90
46492;DHT22;32206;51.446;6.792;2023-09-19T12:45:37;21.70;99.90
46492;DHT22;32206;51.446;6.792;2023-09-19T12:48:24;21.70;99.90
46492;DHT22;32206;51.446;6.792;2023-09-19T12:51:07;21.70;99.90
46492;DHT22;32206;51.446;6.792;2023-09-19T12:53:45;21.70;99.90
46492;DHT22;32206;51.446;6.792;2023-09-19T12:56:17;21.70;99.90
46492;DHT22;32206;51.446;6.792;2023-09-19T13:05:50;21.70;99.90
46492;DHT22;32206;51.446;6.792;2023-09-19T13:08:18;21.60;99.90
46492;DHT22;32206;51.446;6.792;2023-09-19T13:13:39;21.40;99.90
46492;DHT22;32206;51.446;6.792;2023-09-19T13:16:05;21.40;99.90
46492;DHT22;32206;51.446;6.792;2023-09-19T13:18:51;21.30;99.90
46492;DHT22;32206;51.446;6.792;2023-09-19T13:21:31;21.50;99.90
46492;DHT22;32206;51.446;6.792;2023-09-19T13:24:22;21.40;99.90
46492;DHT22;32206;51.446;6.792;2023-09-19T13:26:49;21.40;99.90
46492;DHT22;32206;51.446;6.792;2023-09-19T13:29:15;21.30;99.90
46492;DHT22;32206;51.446;6.792;2023-09-19T13:31:50;21.30;99.90
46492;DHT22;32206;51.446;6.792;2023-09-19T13:34:16;21.20;99.90
46492;DHT22;32206;51.446;6.792;2023-09-19T13:36:43;21.10;99.90
46492;DHT22;32206;51.446;6.792;2023-09-19T13:39:09;21.00;99.90
46492;DHT22;32206;51.446;6.792;2023-09-19T13:41:35;21.00;99.90
46492;DHT22;32206;51.446;6.792;2023-09-19T13:44:04;20.90;99.90
46492;DHT22;32206;51.446;6.792;2023-09-19T13:46:30;20.80;99.90
46492;DHT22;32206;51.446;6.792;2023-09-19T13:49:00;20.60;99.90
46492;DHT22;32206;51.446;6.792;2023-09-19T13:51:30;20.70;99.90
46492;DHT22;32206;51.446;6.792;2023-09-19T13:53:56;20.60;99.90
46492;DHT22;32206;51.446;6.792;2023-09-19T13:56:21;20.60;1.00
46492;DHT22;32206;51.446;6.792;2023-09-19T13:58:47;20.60;99.90
46492;DHT22;32206;51.446;6.792;2023-09-19T14:01:13;20.60;99.90
46492;DHT22;32206;51.446;6.792;2023-09-19T14:03:39;20.60;99.90
46492;DHT22;32206;51.446;6.792;2023-09-19T14:12:50;20.40;1.00
46492;DHT22;32206;51.446;6.792;2023-09-19T14:15:15;20.30;1.00
46492;DHT22;32206;51.446;6.792;2023-09-19T14:17:41;20.30;1.00
46492;DHT22;32206;51.446;6.792;2023-09-19T14:20:13;20.30;1.00
46492;DHT22;32206;51.446;6.792;2023-09-19T14:22:41;20.30;1.00
46492;DHT22;32206;51.446;6.792;2023-09-19T14:25:07;20.30;1.00
46492;DHT22;32206;51.446;6.792;2023-09-19T14:27:32;20.30;1.00
46492;DHT22;32206;51.446;6.792;2023-09-19T14:29:58;20.30;1.00
46492;DHT22;32206;51.446;6.792;2023-09-19T14:32:23;20.30;1.00
46492;DHT22;32206;51.446;6.792;2023-09-19T14:34:49;20.40;1.00
46492;DHT22;32206;51.446;6.792;2023-09-19T14:37:15;20.40;1.00
46492;DHT22;32206;51.446;6.792;2023-09-19T14:43:38;20.40;1.00
46492;DHT22;32206;51.446;6.792;2023-09-19T14:46:07;20.50;1.00
46492;DHT22;32206;51.446;6.792;2023-09-19T14:48:38;20.50;1.00
46492;DHT22;32206;51.446;6.792;2023-09-19T14:54:26;20.40;1.00
46492;DHT22;32206;51.446;6.792;2023-09-19T14:56:54;20.30;1.00
46492;DHT22;32206;51.446;6.792;2023-09-19T14:59:33;20.30;1.00
46492;DHT22;32206;51.446;6.792;2023-09-19T15:01:59;20.30;1.00
46492;DHT22;32206;51.446;6.792;2023-09-19T15:04:25;20.20;1.00
46492;DHT22;32206;51.446;6.792;2023-09-19T15:06:51;20.20;1.00
46492;DHT22;32206;51.446;6.792;2023-09-19T15:09:20;20.20;1.00
46492;DHT22;32206;51.446;6.792;2023-09-19T15:11:54;20.20;1.00
46492;DHT22;32206;51.446;6.792;2023-09-19T15:14:23;20.20;1.00
46492;DHT22;32206;51.446;6.792;2023-09-19T15:16:50;20.20;1.00
46492;DHT22;32206;51.446;6.792;2023-09-19T15:19:16;20.20;1.00
46492;DHT22;32206;51.446;6.792;2023-09-19T15:21:43;20.10;1.00
46492;DHT22;32206;51.446;6.792;2023-09-19T15:30:59;20.20;1.00
46492;DHT22;32206;51.446;6.792;2023-09-19T15:33:25;20.30;1.00
46492;DHT22;32206;51.446;6.792;2023-09-19T15:35:52;20.30;1.00
46492;DHT22;32206;51.446;6.792;2023-09-19T15:38:18;20.30;1.00
46492;DHT22;32206;51.446;6.792;2023-09-19T15:40:47;20.40;1.00
46492;DHT22;32206;51.446;6.792;2023-09-19T15:46:35;20.50;1.00
46492;DHT22;32206;51.446;6.792;2023-09-19T15:49:01;20.50;1.00
46492;DHT22;32206;51.446;6.792;2023-09-19T15:51:27;20.50;1.00
46492;DHT22;32206;51.446;6.792;2023-09-19T15:53:54;20.40;1.00
46492;DHT22;32206;51.446;6.792;2023-09-19T15:56:21;20.50;1.00
46492;DHT22;32206;51.446;6.792;2023-09-19T16:05:36;20.30;1.00
46492;DHT22;32206;51.446;6.792;2023-09-19T16:08:06;20.30;1.00
46492;DHT22;32206;51.446;6.792;2023-09-19T16:10:36;20.20;1.00
46492;DHT22;32206;51.446;6.792;2023-09-19T16:13:05;20.20;1.00
46492;DHT22;32206;51.446;6.792;2023-09-19T16:15:31;20.10;1.00
46492;DHT22;32206;51.446;6.792;2023-09-19T16:17:56;20.00;1.00
46492;DHT22;32206;51.446;6.792;2023-09-19T16:24:19;19.90;1.00
46492;DHT22;32206;51.446;6.792;2023-09-19T16:26:44;19.90;1.00
46492;DHT22;32206;51.446;6.792;2023-09-19T16:29:11;20.00;1.00
46492;DHT22;32206;51.446;6.792;2023-09-19T16:31:37;20.00;1.00
46492;DHT22;32206;51.446;6.792;2023-09-19T16:34:03;20.00;1.00
46492;DHT22;32206;51.446;6.792;2023-09-19T16:36:28;20.00;1.00
46492;DHT22;32206;51.446;6.792;2023-09-19T16:38:54;20.00;1.00
46492;DHT22;32206;51.446;6.792;2023-09-19T16:41:20;20.00;1.00
46492;DHT22;32206;51.446;6.792;2023-09-19T16:43:46;20.10;1.00
46492;DHT22;32206;51.446;6.792;2023-09-19T16:46:12;20.00;1.00
46492;DHT22;32206;51.446;6.792;2023-09-19T16:48:39;20.00;1.00
46492;DHT22;32206;51.446;6.792;2023-09-19T16:51:09;20.00;1.00
46492;DHT22;32206;51.446;6.792;2023-09-19T16:53:36;20.00;1.00
46492;DHT22;32206;51.446;6.792;2023-09-19T16:59:23;19.90;1.00
46492;DHT22;32206;51.446;6.792;2023-09-19T17:01:49;19.90;1.00
46492;DHT22;32206;51.446;6.792;2023-09-19T17:04:14;19.90;1.00
46492;DHT22;32206;51.446;6.792;2023-09-19T17:06:41;19.90;1.00
46492;DHT22;32206;51.446;6.792;2023-09-19T17:09:12;19.90;1.00
46492;DHT22;32206;51.446;6.792;2023-09-19T17:11:37;19.90;1.00
46492;DHT22;32206;51.446;6.792;2023-09-19T17:14:03;19.80;1.00
46492;DHT22;32206;51.446;6.792;2023-09-19T17:16:29;19.80;1.00
46492;DHT22;32206;51.446;6.792;2023-09-19T17:18:56;19.80;1.00
46492;DHT22;32206;51.446;6.792;2023-09-19T17:21:24;19.80;1.00
46492;DHT22;32206;51.446;6.792;2023-09-19T17:23:50;19.80;1.00
46492;DHT22;32206;51.446;6.792;2023-09-19T17:26:16;19.80;1.00
46492;DHT22;32206;51.446;6.792;2023-09-19T17:28:52;19.80;1.00
46492;DHT22;32206;51.446;6.792;2023-09-19T17:31:20;19.80;1.00
46492;DHT22;32206;51.446;6.792;2023-09-19T17:33:47;19.80;1.00
46492;DHT22;32206;51.446;6.792;2023-09-19T17:36:24;19.80;1.00
46492;DHT22;32206;51.446;6.792;2023-09-19T17:38:52;19.70;1.00
46492;DHT22;32206;51.446;6.792;2023-09-19T17:41:18;19.70;3.20
46492;DHT22;32206;51.446;6.792;2023-09-19T17:43:54;19.70;1.00
46492;DHT22;32206;51.446;6.792;2023-09-19T17:46:20;19.70;4.30
46492;DHT22;32206;51.446;6.792;2023-09-19T17:48:48;19.70;17.50
46492;DHT22;32206;51.446;6.792;2023-09-19T17:57:58;19.70;11.70
46492;DHT22;32206;51.446;6.792;2023-09-19T18:00:26;19.60;35.80
46492;DHT22;32206;51.446;6.792;2023-09-19T18:02:52;19.60;49.70
46492;DHT22;32206;51.446;6.792;2023-09-19T18:05:19;19.60;45.60
46492;DHT22;32206;51.446;6.792;2023-09-19T18:07:46;19.60;44.30
46492;DHT22;32206;51.446;6.792;2023-09-19T18:13:35;19.60;57.40
46492;DHT22;32206;51.446;6.792;2023-09-19T18:16:06;19.60;55.10
46492;DHT22;32206;51.446;6.792;2023-09-19T18:18:32;19.60;60.40
46492;DHT22;32206;51.446;6.792;2023-09-19T18:21:03;19.60;31.30
46492;DHT22;32206;51.446;6.792;2023-09-19T18:23:30;19.50;43.00
46492;DHT22;32206;51.446;6.792;2023-09-19T18:25:56;19.50;70.40
46492;DHT22;32206;51.446;6.792;2023-09-19T18:28:22;19.50;62.30
46492;DHT22;32206;51.446;6.792;2023-09-19T18:30:48;19.50;88.40
46492;DHT22;32206;51.446;6.792;2023-09-19T18:33:14;19.50;77.20
46492;DHT22;32206;51.446;6.792;2023-09-19T18:35:40;19.40;99.90
46492;DHT22;32206;51.446;6.792;2023-09-19T18:38:07;19.40;99.90